sensor_id;sensor_type;location;lat;lon;timestamp;P1;durP1;ratioP1;P2;durP2;ratioP2
62623;SDS011;48699;0.000;0.000;2023-06-05T00:01:09;7.60;;;3.13;;
62623;SDS011;48699;0.000;0.000;2023-06-05T00:03:34;6.57;;;2.90;;
62623;SDS011;48699;0.000;0.000;2023-06-05T00:06:02;8.43;;;2.78;;
62623;SDS011;48699;0.000;0.000;2023-06-05T00:08:27;10.80;;;3.40;;
62623;SDS011;48699;0.000;0.000;2023-06-05T00:10:53;8.07;;;4.15;;
62623;SDS011;48699;0.000;0.000;2023-06-05T00:13:18;8.52;;;3.47;;
62623;SDS011;48699;0.000;0.000;2023-06-05T00:15:44;8.27;;;2.70;;
62623;SDS011;48699;0.000;0.000;2023-06-05T00:18:09;6.20;;;2.55;;
62623;SDS011;48699;0.000;0.000;2023-06-05T00:20:34;10.48;;;2.80;;
62623;SDS011;48699;0.000;0.000;2023-06-05T00:23:00;8.50;;;3.22;;
62623;SDS011;48699;0.000;0.000;2023-06-05T00:25:25;10.30;;;3.17;;
62623;SDS011;48699;0.000;0.000;2023-06-05T00:27:50;8.82;;;3.15;;
62623;SDS011;48699;0.000;0.000;2023-06-05T00:30:16;9.70;;;3.03;;
62623;SDS011;48699;0.000;0.000;2023-06-05T00:32:41;8.93;;;3.28;;
62623;SDS011;48699;0.000;0.000;2023-06-05T00:35:07;10.48;;;3.60;;
62623;SDS011;48699;0.000;0.000;2023-06-05T00:37:33;9.25;;;3.42;;
62623;SDS011;48699;0.000;0.000;2023-06-05T00:39:58;10.98;;;3.40;;
62623;SDS011;48699;0.000;0.000;2023-06-05T00:42:24;8.25;;;3.92;;
62623;SDS011;48699;0.000;0.000;2023-06-05T00:44:51;10.20;;;3.45;;
62623;SDS011;48699;0.000;0.000;2023-06-05T00:47:17;8.35;;;3.35;;
62623;SDS011;48699;0.000;0.000;2023-06-05T00:49:42;7.88;;;3.45;;
62623;SDS011;48699;0.000;0.000;2023-06-05T00:52:08;10.65;;;3.28;;
62623;SDS011;48699;0.000;0.000;2023-06-05T00:54:33;11.38;;;3.40;;
62623;SDS011;48699;0.000;0.000;2023-06-05T00:56:59;11.82;;;3.30;;
62623;SDS011;48699;0.000;0.000;2023-06-05T00:59:25;8.40;;;4.07;;
62623;SDS011;48699;0.000;0.000;2023-06-05T01:01:51;7.53;;;3.22;;
62623;SDS011;48699;0.000;0.000;2023-06-05T01:04:19;12.55;;;3.47;;
62623;SDS011;48699;0.000;0.000;2023-06-05T01:06:44;9.90;;;3.20;;
62623;SDS011;48699;0.000;0.000;2023-06-05T01:09:10;11.82;;;5.18;;
62623;SDS011;48699;0.000;0.000;2023-06-05T01:14:18;11.18;;;3.80;;
62623;SDS011;48699;0.000;0.000;2023-06-05T01:16:53;11.73;;;3.67;;
62623;SDS011;48699;0.000;0.000;2023-06-05T01:19:19;6.60;;;3.17;;
62623;SDS011;48699;0.000;0.000;2023-06-05T01:21:54;11.90;;;4.55;;
62623;SDS011;48699;0.000;0.000;2023-06-05T01:24:21;7.45;;;3.42;;
62623;SDS011;48699;0.000;0.000;2023-06-05T01:29:28;9.23;;;4.28;;
62623;SDS011;48699;0.000;0.000;2023-06-05T01:32:25;8.80;;;3.50;;
62623;SDS011;48699;0.000;0.000;2023-06-05T01:34:56;8.93;;;3.50;;
62623;SDS011;48699;0.000;0.000;2023-06-05T01:37:23;9.32;;;3.17;;
62623;SDS011;48699;0.000;0.000;2023-06-05T01:39:51;11.32;;;3.55;;
62623;SDS011;48699;0.000;0.000;2023-06-05T01:42:18;6.88;;;3.78;;
62623;SDS011;48699;0.000;0.000;2023-06-05T01:44:44;12.93;;;3.28;;
62623;SDS011;48699;0.000;0.000;2023-06-05T01:47:10;8.20;;;4.15;;
62623;SDS011;48699;0.000;0.000;2023-06-05T01:49:35;10.93;;;4.13;;
62623;SDS011;48699;0.000;0.000;2023-06-05T01:52:01;10.18;;;4.03;;
62623;SDS011;48699;0.000;0.000;2023-06-05T01:54:26;10.93;;;4.07;;
62623;SDS011;48699;0.000;0.000;2023-06-05T01:56:53;14.30;;;4.18;;
62623;SDS011;48699;0.000;0.000;2023-06-05T01:59:20;12.95;;;4.40;;
62623;SDS011;48699;0.000;0.000;2023-06-05T02:01:47;9.90;;;3.85;;
62623;SDS011;48699;0.000;0.000;2023-06-05T02:04:17;10.65;;;3.90;;
62623;SDS011;48699;0.000;0.000;2023-06-05T02:06:43;9.52;;;3.85;;
62623;SDS011;48699;0.000;0.000;2023-06-05T02:09:09;9.55;;;3.78;;
62623;SDS011;48699;0.000;0.000;2023-06-05T02:11:38;16.38;;;5.95;;
62623;SDS011;48699;0.000;0.000;2023-06-05T02:14:04;14.10;;;4.90;;
62623;SDS011;48699;0.000;0.000;2023-06-05T02:16:31;14.70;;;4.40;;
62623;SDS011;48699;0.000;0.000;2023-06-05T02:18:57;11.98;;;4.55;;
62623;SDS011;48699;0.000;0.000;2023-06-05T02:21:28;9.93;;;4.75;;
62623;SDS011;48699;0.000;0.000;2023-06-05T02:23:54;10.43;;;4.03;;
62623;SDS011;48699;0.000;0.000;2023-06-05T02:26:19;13.98;;;4.28;;
62623;SDS011;48699;0.000;0.000;2023-06-05T02:28:45;14.65;;;5.00;;
62623;SDS011;48699;0.000;0.000;2023-06-05T02:31:10;10.65;;;4.22;;
62623;SDS011;48699;0.000;0.000;2023-06-05T02:33:40;12.25;;;5.00;;
62623;SDS011;48699;0.000;0.000;2023-06-05T02:36:06;14.00;;;4.90;;
62623;SDS011;48699;0.000;0.000;2023-06-05T02:38:32;11.90;;;4.88;;
62623;SDS011;48699;0.000;0.000;2023-06-05T02:40:57;12.07;;;5.22;;
62623;SDS011;48699;0.000;0.000;2023-06-05T02:43:22;13.07;;;4.78;;
62623;SDS011;48699;0.000;0.000;2023-06-05T02:45:48;11.70;;;4.50;;
62623;SDS011;48699;0.000;0.000;2023-06-05T02:48:13;11.88;;;5.13;;
62623;SDS011;48699;0.000;0.000;2023-06-05T02:50:39;11.35;;;4.80;;
62623;SDS011;48699;0.000;0.000;2023-06-05T02:53:04;10.23;;;4.53;;
62623;SDS011;48699;0.000;0.000;2023-06-05T02:55:32;12.73;;;6.10;;
62623;SDS011;48699;0.000;0.000;2023-06-05T02:57:58;14.27;;;5.60;;
62623;SDS011;48699;0.000;0.000;2023-06-05T03:00:23;16.40;;;4.75;;
62623;SDS011;48699;0.000;0.000;2023-06-05T03:05:16;13.38;;;5.80;;
62623;SDS011;48699;0.000;0.000;2023-06-05T03:10:08;17.95;;;5.85;;
62623;SDS011;48699;0.000;0.000;2023-06-05T03:12:34;12.18;;;5.70;;
62623;SDS011;48699;0.000;0.000;2023-06-05T03:14:59;13.10;;;5.97;;
62623;SDS011;48699;0.000;0.000;2023-06-05T03:17:25;14.43;;;6.00;;
62623;SDS011;48699;0.000;0.000;2023-06-05T03:19:52;11.50;;;6.03;;
62623;SDS011;48699;0.000;0.000;2023-06-05T03:22:17;17.73;;;6.00;;
62623;SDS011;48699;0.000;0.000;2023-06-05T03:24:43;14.02;;;6.28;;
62623;SDS011;48699;0.000;0.000;2023-06-05T03:27:08;14.27;;;5.78;;
62623;SDS011;48699;0.000;0.000;2023-06-05T03:29:34;14.48;;;6.10;;
62623;SDS011;48699;0.000;0.000;2023-06-05T03:31:59;14.93;;;6.30;;
62623;SDS011;48699;0.000;0.000;2023-06-05T03:34:25;18.27;;;7.13;;
62623;SDS011;48699;0.000;0.000;2023-06-05T03:36:50;25.55;;;7.60;;
62623;SDS011;48699;0.000;0.000;2023-06-05T03:39:17;15.60;;;6.67;;
62623;SDS011;48699;0.000;0.000;2023-06-05T03:41:42;13.73;;;5.78;;
62623;SDS011;48699;0.000;0.000;2023-06-05T03:44:07;11.55;;;5.82;;
62623;SDS011;48699;0.000;0.000;2023-06-05T03:46:33;14.52;;;6.45;;
62623;SDS011;48699;0.000;0.000;2023-06-05T03:49:01;13.95;;;7.00;;
62623;SDS011;48699;0.000;0.000;2023-06-05T03:51:30;16.77;;;5.90;;
62623;SDS011;48699;0.000;0.000;2023-06-05T03:53:56;20.48;;;7.13;;
62623;SDS011;48699;0.000;0.000;2023-06-05T03:56:23;16.27;;;7.05;;
62623;SDS011;48699;0.000;0.000;2023-06-05T03:58:53;16.52;;;7.20;;
62623;SDS011;48699;0.000;0.000;2023-06-05T04:01:19;13.45;;;5.85;;
62623;SDS011;48699;0.000;0.000;2023-06-05T04:03:44;16.23;;;6.43;;
62623;SDS011;48699;0.000;0.000;2023-06-05T04:06:09;19.08;;;7.03;;
62623;SDS011;48699;0.000;0.000;2023-06-05T04:08:35;13.00;;;5.40;;
62623;SDS011;48699;0.000;0.000;2023-06-05T04:11:01;15.70;;;6.80;;
62623;SDS011;48699;0.000;0.000;2023-06-05T04:13:27;18.15;;;7.35;;
62623;SDS011;48699;0.000;0.000;2023-06-05T04:15:52;13.45;;;5.93;;
62623;SDS011;48699;0.000;0.000;2023-06-05T04:18:18;14.63;;;6.15;;
62623;SDS011;48699;0.000;0.000;2023-06-05T04:20:43;14.65;;;6.82;;
62623;SDS011;48699;0.000;0.000;2023-06-05T04:23:08;14.63;;;8.18;;
62623;SDS011;48699;0.000;0.000;2023-06-05T04:25:34;17.70;;;7.50;;
62623;SDS011;48699;0.000;0.000;2023-06-05T04:27:59;16.27;;;6.65;;
62623;SDS011;48699;0.000;0.000;2023-06-05T04:30:25;13.13;;;7.13;;
62623;SDS011;48699;0.000;0.000;2023-06-05T04:32:50;14.40;;;6.55;;
62623;SDS011;48699;0.000;0.000;2023-06-05T04:35:19;12.75;;;6.68;;
62623;SDS011;48699;0.000;0.000;2023-06-05T04:37:45;21.60;;;7.37;;
62623;SDS011;48699;0.000;0.000;2023-06-05T04:40:11;19.55;;;6.88;;
62623;SDS011;48699;0.000;0.000;2023-06-05T04:42:36;16.85;;;7.32;;
62623;SDS011;48699;0.000;0.000;2023-06-05T04:45:05;17.48;;;6.80;;
62623;SDS011;48699;0.000;0.000;2023-06-05T04:47:34;16.60;;;6.90;;
62623;SDS011;48699;0.000;0.000;2023-06-05T04:50:03;16.65;;;7.22;;
62623;SDS011;48699;0.000;0.000;2023-06-05T04:52:30;14.68;;;6.97;;
62623;SDS011;48699;0.000;0.000;2023-06-05T04:54:56;13.70;;;6.77;;
62623;SDS011;48699;0.000;0.000;2023-06-05T04:57:22;17.85;;;8.00;;
62623;SDS011;48699;0.000;0.000;2023-06-05T04:59:51;16.40;;;7.25;;
62623;SDS011;48699;0.000;0.000;2023-06-05T05:02:17;15.10;;;6.40;;
62623;SDS011;48699;0.000;0.000;2023-06-05T05:04:42;18.70;;;7.35;;
62623;SDS011;48699;0.000;0.000;2023-06-05T05:07:08;16.30;;;7.35;;
62623;SDS011;48699;0.000;0.000;2023-06-05T05:09:38;17.83;;;6.68;;
62623;SDS011;48699;0.000;0.000;2023-06-05T05:12:04;16.55;;;6.85;;
62623;SDS011;48699;0.000;0.000;2023-06-05T05:14:29;13.40;;;6.35;;
62623;SDS011;48699;0.000;0.000;2023-06-05T05:16:55;15.55;;;6.85;;
62623;SDS011;48699;0.000;0.000;2023-06-05T05:19:20;14.10;;;6.50;;
62623;SDS011;48699;0.000;0.000;2023-06-05T05:21:49;19.33;;;7.50;;
62623;SDS011;48699;0.000;0.000;2023-06-05T05:24:15;15.45;;;7.25;;
62623;SDS011;48699;0.000;0.000;2023-06-05T05:26:40;14.40;;;6.05;;
62623;SDS011;48699;0.000;0.000;2023-06-05T05:29:06;14.07;;;7.20;;
62623;SDS011;48699;0.000;0.000;2023-06-05T05:31:32;11.88;;;6.10;;
62623;SDS011;48699;0.000;0.000;2023-06-05T05:33:57;18.30;;;6.70;;
62623;SDS011;48699;0.000;0.000;2023-06-05T05:36:23;13.65;;;6.35;;
62623;SDS011;48699;0.000;0.000;2023-06-05T05:38:50;18.52;;;7.95;;
62623;SDS011;48699;0.000;0.000;2023-06-05T05:41:16;22.15;;;6.85;;
62623;SDS011;48699;0.000;0.000;2023-06-05T05:43:41;17.33;;;6.75;;
62623;SDS011;48699;0.000;0.000;2023-06-05T05:46:06;18.95;;;7.53;;
62623;SDS011;48699;0.000;0.000;2023-06-05T05:48:34;17.65;;;7.35;;
62623;SDS011;48699;0.000;0.000;2023-06-05T05:51:00;14.35;;;6.65;;
62623;SDS011;48699;0.000;0.000;2023-06-05T05:53:26;17.65;;;6.70;;
62623;SDS011;48699;0.000;0.000;2023-06-05T05:55:51;20.67;;;7.10;;
62623;SDS011;48699;0.000;0.000;2023-06-05T05:58:17;16.05;;;6.90;;
62623;SDS011;48699;0.000;0.000;2023-06-05T06:00:43;18.87;;;7.87;;
62623;SDS011;48699;0.000;0.000;2023-06-05T06:03:10;17.20;;;7.70;;
62623;SDS011;48699;0.000;0.000;2023-06-05T06:05:36;16.23;;;6.70;;
62623;SDS011;48699;0.000;0.000;2023-06-05T06:08:02;15.93;;;6.47;;
62623;SDS011;48699;0.000;0.000;2023-06-05T06:10:28;29.02;;;9.10;;
62623;SDS011;48699;0.000;0.000;2023-06-05T06:12:55;15.52;;;7.32;;
62623;SDS011;48699;0.000;0.000;2023-06-05T06:15:21;14.48;;;6.20;;
62623;SDS011;48699;0.000;0.000;2023-06-05T06:17:47;15.20;;;5.90;;
62623;SDS011;48699;0.000;0.000;2023-06-05T06:20:12;14.63;;;7.15;;
62623;SDS011;48699;0.000;0.000;2023-06-05T06:22:39;14.02;;;5.80;;
62623;SDS011;48699;0.000;0.000;2023-06-05T06:25:05;20.73;;;6.93;;
62623;SDS011;48699;0.000;0.000;2023-06-05T06:27:31;24.63;;;7.00;;
62623;SDS011;48699;0.000;0.000;2023-06-05T06:29:57;11.63;;;5.80;;
62623;SDS011;48699;0.000;0.000;2023-06-05T06:32:23;14.02;;;5.95;;
62623;SDS011;48699;0.000;0.000;2023-06-05T06:34:50;15.13;;;5.75;;
62623;SDS011;48699;0.000;0.000;2023-06-05T06:37:16;12.80;;;5.70;;
62623;SDS011;48699;0.000;0.000;2023-06-05T06:39:42;12.18;;;5.00;;
62623;SDS011;48699;0.000;0.000;2023-06-05T06:42:08;13.75;;;5.15;;
62623;SDS011;48699;0.000;0.000;2023-06-05T06:44:38;13.25;;;5.75;;
62623;SDS011;48699;0.000;0.000;2023-06-05T06:47:04;8.95;;;5.25;;
62623;SDS011;48699;0.000;0.000;2023-06-05T06:49:29;11.73;;;4.60;;
62623;SDS011;48699;0.000;0.000;2023-06-05T06:51:55;11.10;;;5.38;;
62623;SDS011;48699;0.000;0.000;2023-06-05T06:54:21;9.87;;;5.30;;
62623;SDS011;48699;0.000;0.000;2023-06-05T06:56:47;10.48;;;4.72;;
62623;SDS011;48699;0.000;0.000;2023-06-05T06:59:14;11.75;;;5.28;;
62623;SDS011;48699;0.000;0.000;2023-06-05T07:01:44;13.57;;;4.78;;
62623;SDS011;48699;0.000;0.000;2023-06-05T07:04:15;10.45;;;4.28;;
62623;SDS011;48699;0.000;0.000;2023-06-05T07:06:43;11.23;;;4.90;;
62623;SDS011;48699;0.000;0.000;2023-06-05T07:09:09;11.65;;;4.57;;
62623;SDS011;48699;0.000;0.000;2023-06-05T07:11:35;7.55;;;4.18;;
62623;SDS011;48699;0.000;0.000;2023-06-05T07:14:01;11.93;;;4.15;;
62623;SDS011;48699;0.000;0.000;2023-06-05T07:16:26;12.52;;;5.28;;
62623;SDS011;48699;0.000;0.000;2023-06-05T07:18:51;13.30;;;4.65;;
62623;SDS011;48699;0.000;0.000;2023-06-05T07:21:18;17.35;;;4.50;;
62623;SDS011;48699;0.000;0.000;2023-06-05T07:23:46;16.95;;;6.88;;
62623;SDS011;48699;0.000;0.000;2023-06-05T07:26:13;12.50;;;4.72;;
62623;SDS011;48699;0.000;0.000;2023-06-05T07:28:41;10.13;;;3.78;;
62623;SDS011;48699;0.000;0.000;2023-06-05T07:31:06;10.43;;;3.17;;
62623;SDS011;48699;0.000;0.000;2023-06-05T07:33:32;8.20;;;3.75;;
62623;SDS011;48699;0.000;0.000;2023-06-05T07:35:58;9.18;;;3.67;;
62623;SDS011;48699;0.000;0.000;2023-06-05T07:38:24;9.05;;;4.00;;
62623;SDS011;48699;0.000;0.000;2023-06-05T07:40:51;7.20;;;3.20;;
62623;SDS011;48699;0.000;0.000;2023-06-05T07:43:17;6.70;;;2.97;;
62623;SDS011;48699;0.000;0.000;2023-06-05T07:45:42;8.07;;;3.55;;
62623;SDS011;48699;0.000;0.000;2023-06-05T07:48:08;12.70;;;4.43;;
62623;SDS011;48699;0.000;0.000;2023-06-05T07:50:33;9.43;;;3.30;;
62623;SDS011;48699;0.000;0.000;2023-06-05T07:52:59;7.78;;;3.58;;
62623;SDS011;48699;0.000;0.000;2023-06-05T07:55:26;10.43;;;3.33;;
62623;SDS011;48699;0.000;0.000;2023-06-05T07:57:51;9.50;;;2.97;;
62623;SDS011;48699;0.000;0.000;2023-06-05T08:00:18;8.30;;;2.58;;
62623;SDS011;48699;0.000;0.000;2023-06-05T08:02:44;12.85;;;3.45;;
62623;SDS011;48699;0.000;0.000;2023-06-05T08:05:10;8.07;;;2.92;;
62623;SDS011;48699;0.000;0.000;2023-06-05T08:07:38;7.22;;;2.78;;
62623;SDS011;48699;0.000;0.000;2023-06-05T08:10:03;9.65;;;3.30;;
62623;SDS011;48699;0.000;0.000;2023-06-05T08:12:30;8.93;;;3.30;;
62623;SDS011;48699;0.000;0.000;2023-06-05T08:14:55;10.05;;;3.30;;
62623;SDS011;48699;0.000;0.000;2023-06-05T08:17:20;7.97;;;3.00;;
62623;SDS011;48699;0.000;0.000;2023-06-05T08:19:46;9.57;;;3.08;;
62623;SDS011;48699;0.000;0.000;2023-06-05T08:22:11;7.63;;;3.35;;
62623;SDS011;48699;0.000;0.000;2023-06-05T08:24:37;9.40;;;2.90;;
62623;SDS011;48699;0.000;0.000;2023-06-05T08:27:02;6.65;;;2.75;;
62623;SDS011;48699;0.000;0.000;2023-06-05T08:29:28;10.48;;;3.42;;
62623;SDS011;48699;0.000;0.000;2023-06-05T08:31:53;8.98;;;3.40;;
62623;SDS011;48699;0.000;0.000;2023-06-05T08:34:19;10.93;;;2.63;;
62623;SDS011;48699;0.000;0.000;2023-06-05T08:36:44;16.40;;;2.92;;
62623;SDS011;48699;0.000;0.000;2023-06-05T08:39:10;6.72;;;2.90;;
62623;SDS011;48699;0.000;0.000;2023-06-05T08:41:36;7.03;;;2.60;;
62623;SDS011;48699;0.000;0.000;2023-06-05T08:44:02;9.23;;;3.22;;
62623;SDS011;48699;0.000;0.000;2023-06-05T08:46:28;8.10;;;2.58;;
62623;SDS011;48699;0.000;0.000;2023-06-05T08:48:56;7.22;;;3.50;;
62623;SDS011;48699;0.000;0.000;2023-06-05T08:51:22;7.15;;;2.63;;
62623;SDS011;48699;0.000;0.000;2023-06-05T08:53:54;9.50;;;3.83;;
62623;SDS011;48699;0.000;0.000;2023-06-05T08:56:23;6.20;;;2.20;;
62623;SDS011;48699;0.000;0.000;2023-06-05T08:58:48;9.60;;;2.37;;
62623;SDS011;48699;0.000;0.000;2023-06-05T09:01:15;9.15;;;2.65;;
62623;SDS011;48699;0.000;0.000;2023-06-05T09:03:41;7.40;;;2.90;;
62623;SDS011;48699;0.000;0.000;2023-06-05T09:06:09;9.30;;;2.63;;
62623;SDS011;48699;0.000;0.000;2023-06-05T09:08:35;6.50;;;2.33;;
62623;SDS011;48699;0.000;0.000;2023-06-05T09:13:56;9.23;;;2.30;;
62623;SDS011;48699;0.000;0.000;2023-06-05T09:16:35;8.88;;;2.47;;
62623;SDS011;48699;0.000;0.000;2023-06-05T09:19:02;5.53;;;2.42;;
62623;SDS011;48699;0.000;0.000;2023-06-05T09:21:29;6.47;;;2.67;;
62623;SDS011;48699;0.000;0.000;2023-06-05T09:29:12;6.78;;;2.75;;
62623;SDS011;48699;0.000;0.000;2023-06-05T09:31:41;7.95;;;2.58;;
62623;SDS011;48699;0.000;0.000;2023-06-05T09:34:10;7.25;;;2.88;;
62623;SDS011;48699;0.000;0.000;2023-06-05T09:36:44;8.48;;;2.50;;
62623;SDS011;48699;0.000;0.000;2023-06-05T09:39:16;4.82;;;2.58;;
62623;SDS011;48699;0.000;0.000;2023-06-05T09:41:47;6.40;;;2.67;;
62623;SDS011;48699;0.000;0.000;2023-06-05T09:44:14;8.10;;;2.53;;
62623;SDS011;48699;0.000;0.000;2023-06-05T09:52:06;5.75;;;2.55;;
62623;SDS011;48699;0.000;0.000;2023-06-05T09:54:35;12.05;;;2.50;;
62623;SDS011;48699;0.000;0.000;2023-06-05T09:57:06;8.27;;;2.30;;
62623;SDS011;48699;0.000;0.000;2023-06-05T09:59:39;5.78;;;2.45;;
62623;SDS011;48699;0.000;0.000;2023-06-05T10:02:16;6.78;;;2.45;;
62623;SDS011;48699;0.000;0.000;2023-06-05T10:04:46;8.32;;;2.63;;
62623;SDS011;48699;0.000;0.000;2023-06-05T10:07:16;9.15;;;2.10;;
62623;SDS011;48699;0.000;0.000;2023-06-05T10:09:44;7.43;;;2.10;;
62623;SDS011;48699;0.000;0.000;2023-06-05T10:12:10;5.75;;;2.22;;
62623;SDS011;48699;0.000;0.000;2023-06-05T10:14:37;9.07;;;2.40;;
62623;SDS011;48699;0.000;0.000;2023-06-05T10:17:05;11.10;;;2.88;;
62623;SDS011;48699;0.000;0.000;2023-06-05T10:19:31;9.47;;;2.23;;
62623;SDS011;48699;0.000;0.000;2023-06-05T10:21:57;5.53;;;2.10;;
62623;SDS011;48699;0.000;0.000;2023-06-05T10:24:27;13.73;;;3.37;;
62623;SDS011;48699;0.000;0.000;2023-06-05T10:38:17;6.95;;;2.17;;
62623;SDS011;48699;0.000;0.000;2023-06-05T10:41:05;12.27;;;4.50;;
62623;SDS011;48699;0.000;0.000;2023-06-05T10:45:59;6.30;;;2.25;;
62623;SDS011;48699;0.000;0.000;2023-06-05T10:51:31;7.05;;;2.00;;
62623;SDS011;48699;0.000;0.000;2023-06-05T10:54:03;6.75;;;2.35;;
62623;SDS011;48699;0.000;0.000;2023-06-05T11:05:04;6.30;;;2.45;;
62623;SDS011;48699;0.000;0.000;2023-06-05T11:07:26;6.30;;;2.40;;
62623;SDS011;48699;0.000;0.000;2023-06-05T11:15:08;4.63;;;1.80;;
62623;SDS011;48699;0.000;0.000;2023-06-05T11:17:36;4.93;;;2.28;;
62623;SDS011;48699;0.000;0.000;2023-06-05T11:20:06;5.88;;;2.50;;
62623;SDS011;48699;0.000;0.000;2023-06-05T11:27:46;5.28;;;2.17;;
62623;SDS011;48699;0.000;0.000;2023-06-05T11:30:13;6.32;;;1.92;;
62623;SDS011;48699;0.000;0.000;2023-06-05T11:32:39;5.15;;;1.98;;
62623;SDS011;48699;0.000;0.000;2023-06-05T11:35:05;7.60;;;2.20;;
62623;SDS011;48699;0.000;0.000;2023-06-05T11:37:31;6.80;;;2.38;;
62623;SDS011;48699;0.000;0.000;2023-06-05T11:40:01;5.57;;;2.17;;
62623;SDS011;48699;0.000;0.000;2023-06-05T11:42:30;7.65;;;2.17;;
62623;SDS011;48699;0.000;0.000;2023-06-05T11:44:56;9.30;;;2.67;;
62623;SDS011;48699;0.000;0.000;2023-06-05T11:47:22;6.40;;;2.00;;
62623;SDS011;48699;0.000;0.000;2023-06-05T11:49:48;4.28;;;1.65;;
62623;SDS011;48699;0.000;0.000;2023-06-05T11:52:17;6.20;;;1.77;;
62623;SDS011;48699;0.000;0.000;2023-06-05T11:54:43;6.78;;;2.65;;
62623;SDS011;48699;0.000;0.000;2023-06-05T11:57:18;11.88;;;2.33;;
62623;SDS011;48699;0.000;0.000;2023-06-05T11:59:44;3.90;;;1.87;;
62623;SDS011;48699;0.000;0.000;2023-06-05T12:02:10;4.80;;;1.83;;
62623;SDS011;48699;0.000;0.000;2023-06-05T12:04:38;6.45;;;1.92;;
62623;SDS011;48699;0.000;0.000;2023-06-05T12:07:05;7.05;;;2.40;;
62623;SDS011;48699;0.000;0.000;2023-06-05T12:09:30;6.90;;;2.30;;
62623;SDS011;48699;0.000;0.000;2023-06-05T12:12:06;4.50;;;2.08;;
62623;SDS011;48699;0.000;0.000;2023-06-05T12:14:32;3.70;;;1.77;;
62623;SDS011;48699;0.000;0.000;2023-06-05T12:16:59;5.63;;;2.25;;
62623;SDS011;48699;0.000;0.000;2023-06-05T12:19:24;3.88;;;1.73;;
62623;SDS011;48699;0.000;0.000;2023-06-05T12:21:50;6.10;;;2.10;;
62623;SDS011;48699;0.000;0.000;2023-06-05T12:24:26;7.90;;;2.20;;
62623;SDS011;48699;0.000;0.000;2023-06-05T12:26:55;6.18;;;2.38;;
62623;SDS011;48699;0.000;0.000;2023-06-05T12:29:33;5.28;;;2.30;;
62623;SDS011;48699;0.000;0.000;2023-06-05T12:32:00;6.00;;;1.80;;
62623;SDS011;48699;0.000;0.000;2023-06-05T12:34:40;4.75;;;2.00;;
62623;SDS011;48699;0.000;0.000;2023-06-05T12:39:59;5.20;;;2.53;;
62623;SDS011;48699;0.000;0.000;2023-06-05T12:42:26;13.68;;;2.60;;
62623;SDS011;48699;0.000;0.000;2023-06-05T12:44:51;5.37;;;1.70;;
62623;SDS011;48699;0.000;0.000;2023-06-05T12:47:17;5.18;;;2.22;;
62623;SDS011;48699;0.000;0.000;2023-06-05T12:49:42;5.78;;;2.00;;
62623;SDS011;48699;0.000;0.000;2023-06-05T12:52:08;7.90;;;2.13;;
62623;SDS011;48699;0.000;0.000;2023-06-05T12:54:35;5.82;;;2.08;;
62623;SDS011;48699;0.000;0.000;2023-06-05T12:57:01;6.80;;;2.33;;
62623;SDS011;48699;0.000;0.000;2023-06-05T12:59:26;6.88;;;2.20;;
62623;SDS011;48699;0.000;0.000;2023-06-05T13:01:52;31.77;;;4.30;;
62623;SDS011;48699;0.000;0.000;2023-06-05T13:04:17;15.93;;;2.75;;
62623;SDS011;48699;0.000;0.000;2023-06-05T13:06:43;6.50;;;1.80;;
62623;SDS011;48699;0.000;0.000;2023-06-05T13:09:09;4.88;;;1.95;;
62623;SDS011;48699;0.000;0.000;2023-06-05T13:11:35;4.77;;;2.20;;
62623;SDS011;48699;0.000;0.000;2023-06-05T13:14:00;5.70;;;2.03;;
62623;SDS011;48699;0.000;0.000;2023-06-05T13:16:26;9.13;;;3.17;;
62623;SDS011;48699;0.000;0.000;2023-06-05T13:18:52;8.37;;;2.47;;
62623;SDS011;48699;0.000;0.000;2023-06-05T13:21:17;9.60;;;2.17;;
62623;SDS011;48699;0.000;0.000;2023-06-05T13:23:43;7.00;;;2.30;;
62623;SDS011;48699;0.000;0.000;2023-06-05T13:26:08;6.05;;;2.03;;
62623;SDS011;48699;0.000;0.000;2023-06-05T13:28:33;9.02;;;2.53;;
62623;SDS011;48699;0.000;0.000;2023-06-05T13:30:59;6.05;;;2.50;;
62623;SDS011;48699;0.000;0.000;2023-06-05T13:33:26;5.55;;;2.10;;
62623;SDS011;48699;0.000;0.000;2023-06-05T13:35:54;5.90;;;1.93;;
62623;SDS011;48699;0.000;0.000;2023-06-05T13:38:20;7.25;;;2.22;;
62623;SDS011;48699;0.000;0.000;2023-06-05T13:40:46;5.97;;;2.00;;
62623;SDS011;48699;0.000;0.000;2023-06-05T13:43:15;12.65;;;2.63;;
62623;SDS011;48699;0.000;0.000;2023-06-05T13:45:43;6.40;;;2.10;;
62623;SDS011;48699;0.000;0.000;2023-06-05T13:48:09;7.70;;;2.30;;
62623;SDS011;48699;0.000;0.000;2023-06-05T13:50:34;5.85;;;2.30;;
62623;SDS011;48699;0.000;0.000;2023-06-05T13:53:00;6.47;;;1.80;;
62623;SDS011;48699;0.000;0.000;2023-06-05T13:55:28;5.00;;;2.03;;
62623;SDS011;48699;0.000;0.000;2023-06-05T13:57:57;8.30;;;2.63;;
62623;SDS011;48699;0.000;0.000;2023-06-05T14:00:27;8.18;;;2.63;;
62623;SDS011;48699;0.000;0.000;2023-06-05T14:02:53;5.32;;;2.10;;
62623;SDS011;48699;0.000;0.000;2023-06-05T14:05:21;8.20;;;2.75;;
62623;SDS011;48699;0.000;0.000;2023-06-05T14:07:47;6.57;;;2.47;;
62623;SDS011;48699;0.000;0.000;2023-06-05T14:10:14;8.30;;;2.22;;
62623;SDS011;48699;0.000;0.000;2023-06-05T14:12:40;5.20;;;2.00;;
62623;SDS011;48699;0.000;0.000;2023-06-05T14:15:05;4.38;;;2.10;;
62623;SDS011;48699;0.000;0.000;2023-06-05T14:17:31;6.78;;;2.75;;
62623;SDS011;48699;0.000;0.000;2023-06-05T14:19:56;4.93;;;2.25;;
62623;SDS011;48699;0.000;0.000;2023-06-05T14:22:22;4.57;;;2.27;;
62623;SDS011;48699;0.000;0.000;2023-06-05T14:24:48;8.97;;;2.20;;
62623;SDS011;48699;0.000;0.000;2023-06-05T14:27:13;5.47;;;2.28;;
62623;SDS011;48699;0.000;0.000;2023-06-05T14:29:40;9.75;;;2.30;;
62623;SDS011;48699;0.000;0.000;2023-06-05T14:32:06;6.23;;;2.27;;
62623;SDS011;48699;0.000;0.000;2023-06-05T14:34:31;7.80;;;3.03;;
62623;SDS011;48699;0.000;0.000;2023-06-05T14:36:57;7.53;;;2.35;;
62623;SDS011;48699;0.000;0.000;2023-06-05T14:39:22;7.18;;;2.30;;
62623;SDS011;48699;0.000;0.000;2023-06-05T14:41:48;6.20;;;2.55;;
62623;SDS011;48699;0.000;0.000;2023-06-05T14:44:13;7.55;;;2.70;;
62623;SDS011;48699;0.000;0.000;2023-06-05T14:46:39;5.20;;;2.30;;
62623;SDS011;48699;0.000;0.000;2023-06-05T14:49:04;6.72;;;2.65;;
62623;SDS011;48699;0.000;0.000;2023-06-05T14:51:30;4.40;;;2.13;;
62623;SDS011;48699;0.000;0.000;2023-06-05T14:53:55;4.88;;;2.33;;
62623;SDS011;48699;0.000;0.000;2023-06-05T14:56:21;7.77;;;2.77;;
62623;SDS011;48699;0.000;0.000;2023-06-05T14:58:47;7.43;;;2.75;;
62623;SDS011;48699;0.000;0.000;2023-06-05T15:01:13;4.07;;;2.10;;
62623;SDS011;48699;0.000;0.000;2023-06-05T15:03:39;6.07;;;2.05;;
62623;SDS011;48699;0.000;0.000;2023-06-05T15:06:05;6.97;;;1.90;;
62623;SDS011;48699;0.000;0.000;2023-06-05T15:08:34;6.93;;;2.10;;
62623;SDS011;48699;0.000;0.000;2023-06-05T15:11:02;5.70;;;2.87;;
62623;SDS011;48699;0.000;0.000;2023-06-05T15:13:27;7.38;;;2.28;;
62623;SDS011;48699;0.000;0.000;2023-06-05T15:15:53;6.53;;;2.27;;
62623;SDS011;48699;0.000;0.000;2023-06-05T15:18:18;4.65;;;1.98;;
62623;SDS011;48699;0.000;0.000;2023-06-05T15:20:43;5.72;;;2.08;;
62623;SDS011;48699;0.000;0.000;2023-06-05T15:23:09;6.68;;;2.30;;
62623;SDS011;48699;0.000;0.000;2023-06-05T15:25:34;5.28;;;1.92;;
62623;SDS011;48699;0.000;0.000;2023-06-05T15:28:00;6.00;;;2.00;;
62623;SDS011;48699;0.000;0.000;2023-06-05T15:30:26;8.85;;;2.30;;
62623;SDS011;48699;0.000;0.000;2023-06-05T15:32:52;5.88;;;2.20;;
62623;SDS011;48699;0.000;0.000;2023-06-05T15:35:18;5.13;;;2.45;;
62623;SDS011;48699;0.000;0.000;2023-06-05T15:37:43;4.40;;;2.08;;
62623;SDS011;48699;0.000;0.000;2023-06-05T15:40:09;5.00;;;2.10;;
62623;SDS011;48699;0.000;0.000;2023-06-05T15:42:36;5.33;;;2.27;;
62623;SDS011;48699;0.000;0.000;2023-06-05T15:45:12;10.60;;;2.50;;
62623;SDS011;48699;0.000;0.000;2023-06-05T15:47:40;8.18;;;2.42;;
62623;SDS011;48699;0.000;0.000;2023-06-05T15:50:06;6.82;;;2.53;;
62623;SDS011;48699;0.000;0.000;2023-06-05T15:52:33;6.82;;;2.25;;
62623;SDS011;48699;0.000;0.000;2023-06-05T15:55:01;6.40;;;1.95;;